sensor_id;sensor_type;location;lat;lon;timestamp;pressure;altitude;pressure_sealevel;temperature;humidity
56198;BME280;42700;42.524;12.052;2022-09-03T00:00:41;96177.53;;;19.40;100.00
56198;BME280;42700;42.524;12.052;2022-09-03T00:08:19;96178.06;;;19.42;100.00
56198;BME280;42700;42.524;12.052;2022-09-03T00:13:19;96162.75;;;19.32;100.00
56198;BME280;42700;42.524;12.052;2022-09-03T00:15:46;96150.09;;;19.27;100.00
56198;BME280;42700;42.524;12.052;2022-09-03T00:18:16;96142.00;;;19.22;100.00
56198;BME280;42700;42.524;12.052;2022-09-03T00:20:45;96144.72;;;19.17;100.00
56198;BME280;42700;42.524;12.052;2022-09-03T00:23:15;96142.81;;;19.12;100.00
56198;BME280;42700;42.524;12.052;2022-09-03T00:25:53;96145.50;;;19.07;100.00
56198;BME280;42700;42.524;12.052;2022-09-03T00:28:25;96120.22;;;18.98;100.00
56198;BME280;42700;42.524;12.052;2022-09-03T00:30:53;96122.63;;;18.94;100.00
56198;BME280;42700;42.524;12.052;2022-09-03T00:33:22;96133.41;;;18.94;100.00
56198;BME280;42700;42.524;12.052;2022-09-03T00:38:31;96136.34;;;18.88;100.00
56198;BME280;42700;42.524;12.052;2022-09-03T00:41:05;96134.44;;;18.83;100.00
56198;BME280;42700;42.524;12.052;2022-09-03T00:48:54;96146.81;;;18.79;100.00
56198;BME280;42700;42.524;12.052;2022-09-03T00:54:05;96149.22;;;18.75;100.00
56198;BME280;42700;42.524;12.052;2022-09-03T00:59:09;96140.84;;;18.67;100.00
56198;BME280;42700;42.524;12.052;2022-09-03T01:07:01;96140.84;;;18.67;100.00
56198;BME280;42700;42.524;12.052;2022-09-03T01:09:46;96156.44;;;18.70;100.00
56198;BME280;42700;42.524;12.052;2022-09-03T01:12:19;96178.22;;;18.73;100.00
56198;BME280;42700;42.524;12.052;2022-09-03T01:17:27;96242.59;;;18.90;100.00
56198;BME280;42700;42.524;12.052;2022-09-03T01:20:09;96257.38;;;18.93;100.00
56198;BME280;42700;42.524;12.052;2022-09-03T01:27:46;96270.03;;;18.92;100.00
56198;BME280;42700;42.524;12.052;2022-09-03T01:30:17;96272.72;;;18.92;100.00
56198;BME280;42700;42.524;12.052;2022-09-03T01:32:49;96282.94;;;18.90;100.00
56198;BME280;42700;42.524;12.052;2022-09-03T01:37:53;96292.59;;;18.91;100.00
56198;BME280;42700;42.524;12.052;2022-09-03T01:43:18;96298.50;;;18.88;100.00
56198;BME280;42700;42.524;12.052;2022-09-03T01:53:29;96241.97;;;18.73;100.00
56198;BME280;42700;42.524;12.052;2022-09-03T01:58:44;96254.63;;;18.77;100.00
56198;BME280;42700;42.524;12.052;2022-09-03T02:04:21;96318.44;;;18.92;100.00
56198;BME280;42700;42.524;12.052;2022-09-03T02:06:48;96321.13;;;18.92;100.00
56198;BME280;42700;42.524;12.052;2022-09-03T02:09:15;96323.28;;;18.90;100.00
56198;BME280;42700;42.524;12.052;2022-09-03T02:11:41;96319.22;;;18.88;100.00
56198;BME280;42700;42.524;12.052;2022-09-03T02:14:08;96306.03;;;18.86;100.00
56198;BME280;42700;42.524;12.052;2022-09-03T02:16:33;96306.03;;;18.86;100.00
56198;BME280;42700;42.524;12.052;2022-09-03T02:19:03;96306.03;;;18.86;100.00
56198;BME280;42700;42.524;12.052;2022-09-03T02:21:37;96296.28;;;18.80;100.00
56198;BME280;42700;42.524;12.052;2022-09-03T02:24:04;96286.09;;;18.77;100.00
56198;BME280;42700;42.524;12.052;2022-09-03T02:26:30;96276.38;;;18.76;100.00
56198;BME280;42700;42.524;12.052;2022-09-03T02:28:56;96289.31;;;18.79;100.00
56198;BME280;42700;42.524;12.052;2022-09-03T02:31:21;96299.53;;;18.77;100.00
56198;BME280;42700;42.524;12.052;2022-09-03T02:33:47;96312.16;;;18.76;100.00
56198;BME280;42700;42.524;12.052;2022-09-03T02:36:14;96319.44;;;18.81;100.00
56198;BME280;42700;42.524;12.052;2022-09-03T02:38:41;96309.72;;;18.75;100.00
56198;BME280;42700;42.524;12.052;2022-09-03T02:41:07;96307.28;;;18.73;100.00
56198;BME280;42700;42.524;12.052;2022-09-03T02:43:38;96302.75;;;18.74;100.00
56198;BME280;42700;42.524;12.052;2022-09-03T02:46:07;96299.50;;;18.72;100.00
56198;BME280;42700;42.524;12.052;2022-09-03T02:48:34;96290.88;;;18.70;100.00
56198;BME280;42700;42.524;12.052;2022-09-03T02:51:00;96281.19;;;18.63;100.00
56198;BME280;42700;42.524;12.052;2022-09-03T02:53:25;96261.25;;;18.59;100.00
56198;BME280;42700;42.524;12.052;2022-09-03T02:55:59;96255.06;;;18.54;100.00
56198;BME280;42700;42.524;12.052;2022-09-03T02:58:25;96254.75;;;18.50;100.00
56198;BME280;42700;42.524;12.052;2022-09-03T03:00:51;96237.56;;;18.46;100.00
56198;BME280;42700;42.524;12.052;2022-09-03T03:03:17;96225.16;;;18.40;100.00
56198;BME280;42700;42.524;12.052;2022-09-03T03:05:44;96234.84;;;18.41;100.00
56198;BME280;42700;42.524;12.052;2022-09-03T03:08:11;96224.63;;;18.38;100.00
56198;BME280;42700;42.524;12.052;2022-09-03T03:10:42;96211.16;;;18.33;100.00
56198;BME280;42700;42.524;12.052;2022-09-03T03:13:10;96209.03;;;18.35;100.00
56198;BME280;42700;42.524;12.052;2022-09-03T03:15:36;96226.78;;;18.36;100.00
56198;BME280;42700;42.524;12.052;2022-09-03T03:18:02;96211.16;;;18.33;100.00
56198;BME280;42700;42.524;12.052;2022-09-03T03:20:27;96195.56;;;18.24;100.00
56198;BME280;42700;42.524;12.052;2022-09-03T03:22:53;96195.53;;;18.19;100.00
56198;BME280;42700;42.524;12.052;2022-09-03T03:25:18;96176.72;;;18.14;100.00
56198;BME280;42700;42.524;12.052;2022-09-03T03:27:44;96177.47;;;18.10;100.00
56198;BME280;42700;42.524;12.052;2022-09-03T03:30:10;96171.28;;;18.04;100.00
56198;BME280;42700;42.524;12.052;2022-09-03T03:32:36;96152.44;;;17.99;100.00
56198;BME280;42700;42.524;12.052;2022-09-03T03:35:02;96163.19;;;17.99;100.00
56198;BME280;42700;42.524;12.052;2022-09-03T03:37:28;96173.94;;;17.99;100.00
56198;BME280;42700;42.524;12.052;2022-09-03T03:39:53;96165.88;;;17.99;100.00
56198;BME280;42700;42.524;12.052;2022-09-03T03:42:19;96149.22;;;17.97;100.00
56198;BME280;42700;42.524;12.052;2022-09-03T03:44:44;96160.50;;;17.99;100.00
56198;BME280;42700;42.524;12.052;2022-09-03T03:47:10;96193.34;;;18.11;100.00
56198;BME280;42700;42.524;12.052;2022-09-03T03:49:36;96214.09;;;18.26;100.00
56198;BME280;42700;42.524;12.052;2022-09-03T03:52:02;96226.72;;;18.25;100.00
56198;BME280;42700;42.524;12.052;2022-09-03T03:54:28;96189.28;;;18.08;100.00
56198;BME280;42700;42.524;12.052;2022-09-03T03:56:57;96167.50;;;18.00;100.00
56198;BME280;42700;42.524;12.052;2022-09-03T03:59:22;96179.88;;;18.01;100.00
56198;BME280;42700;42.524;12.052;2022-09-03T04:01:48;96197.59;;;18.07;100.00
56198;BME280;42700;42.524;12.052;2022-09-03T04:04:14;96212.69;;;18.13;100.00
56198;BME280;42700;42.524;12.052;2022-09-03T04:06:40;96227.78;;;18.19;100.00
56198;BME280;42700;42.524;12.052;2022-09-03T04:09:05;96243.41;;;18.28;100.00
56198;BME280;42700;42.524;12.052;2022-09-03T04:11:31;96275.16;;;18.41;100.00
56198;BME280;42700;42.524;12.052;2022-09-03T04:13:56;96276.22;;;18.40;100.00
56198;BME280;42700;42.524;12.052;2022-09-03T04:16:23;96238.56;;;18.30;100.00
56198;BME280;42700;42.524;12.052;2022-09-03T04:18:49;96251.22;;;18.34;100.00
56198;BME280;42700;42.524;12.052;2022-09-03T04:21:16;96242.03;;;18.30;100.00
56198;BME280;42700;42.524;12.052;2022-09-03T04:23:42;96241.28;;;18.35;100.00
56198;BME280;42700;42.524;12.052;2022-09-03T04:26:09;96254.72;;;18.40;100.00
56198;BME280;42700;42.524;12.052;2022-09-03T04:28:35;96268.19;;;18.45;100.00
56198;BME280;42700;42.524;12.052;2022-09-03T04:31:02;96269.28;;;18.49;100.00
56198;BME280;42700;42.524;12.052;2022-09-03T04:33:28;96286.50;;;18.53;100.00
56198;BME280;42700;42.524;12.052;2022-09-03T04:36:28;96287.34;;;18.59;100.00
56198;BME280;42700;42.524;12.052;2022-09-03T04:38:47;96287.66;;;18.68;100.00
56198;BME280;42700;42.524;12.052;2022-09-03T04:41:14;96310.81;;;18.79;100.00
56198;BME280;42700;42.524;12.052;2022-09-03T04:43:40;96315.19;;;18.85;100.00
56198;BME280;42700;42.524;12.052;2022-09-03T04:46:09;96316.78;;;18.86;100.00
56198;BME280;42700;42.524;12.052;2022-09-03T04:48:35;96306.03;;;18.86;100.00
56198;BME280;42700;42.524;12.052;2022-09-03T04:51:05;96305.00;;;18.92;100.00
56198;BME280;42700;42.524;12.052;2022-09-03T04:53:32;96313.59;;;18.99;100.00
56198;BME280;42700;42.524;12.052;2022-09-03T04:55:58;96337.59;;;19.11;100.00
56198;BME280;42700;42.524;12.052;2022-09-03T04:58:23;96343.28;;;19.20;100.00
56198;BME280;42700;42.524;12.052;2022-09-03T05:00:49;96352.16;;;19.26;100.00
56198;BME280;42700;42.524;12.052;2022-09-03T05:03:14;96366.75;;;19.35;100.00
56198;BME280;42700;42.524;12.052;2022-09-03T05:05:40;96358.41;;;19.36;100.00
56198;BME280;42700;42.524;12.052;2022-09-03T05:08:05;96367.56;;;19.46;100.00
56198;BME280;42700;42.524;12.052;2022-09-03T05:10:31;96384.28;;;19.53;100.00
56198;BME280;42700;42.524;12.052;2022-09-03T05:13:00;96391.53;;;19.63;100.00
56198;BME280;42700;42.524;12.052;2022-09-03T05:15:26;96407.44;;;19.64;100.00
56198;BME280;42700;42.524;12.052;2022-09-03T05:17:58;96447.09;;;19.79;100.00
56198;BME280;42700;42.524;12.052;2022-09-03T05:20:26;96450.91;;;19.94;100.00
56198;BME280;42700;42.524;12.052;2022-09-03T05:22:53;96459.81;;;20.04;100.00
56198;BME280;42700;42.524;12.052;2022-09-03T05:25:19;96464.66;;;20.07;100.00
56198;BME280;42700;42.524;12.052;2022-09-03T05:27:44;96465.75;;;20.12;100.00
56198;BME280;42700;42.524;12.052;2022-09-03T05:30:11;96463.06;;;20.17;100.00
56198;BME280;42700;42.524;12.052;2022-09-03T05:32:36;96439.88;;;20.05;100.00
56198;BME280;42700;42.524;12.052;2022-09-03T05:35:02;96471.16;;;20.22;100.00
56198;BME280;42700;42.524;12.052;2022-09-03T05:37:27;96462.00;;;20.23;100.00
56198;BME280;42700;42.524;12.052;2022-09-03T05:39:53;96471.72;;;20.29;100.00
56198;BME280;42700;42.524;12.052;2022-09-03T05:42:18;96461.19;;;20.33;100.00
56198;BME280;42700;42.524;12.052;2022-09-03T05:44:46;96466.84;;;20.36;100.00
56198;BME280;42700;42.524;12.052;2022-09-03T05:47:13;96454.44;;;20.35;100.00
56198;BME280;42700;42.524;12.052;2022-09-03T05:49:40;96459.56;;;20.37;100.00
56198;BME280;42700;42.524;12.052;2022-09-03T05:52:05;96461.47;;;20.41;100.00
56198;BME280;42700;42.524;12.052;2022-09-03T05:54:31;96460.91;;;20.44;100.00
56198;BME280;42700;42.524;12.052;2022-09-03T05:56:56;96451.75;;;20.40;100.00
56198;BME280;42700;42.524;12.052;2022-09-03T05:59:22;96443.13;;;20.38;100.00
56198;BME280;42700;42.524;12.052;2022-09-03T06:01:47;96452.84;;;20.44;100.00
56198;BME280;42700;42.524;12.052;2022-09-03T06:04:14;96453.91;;;20.49;100.00
56198;BME280;42700;42.524;12.052;2022-09-03T06:06:41;96449.34;;;20.49;100.00
56198;BME280;42700;42.524;12.052;2022-09-03T06:09:07;96465.25;;;20.56;100.00
56198;BME280;42700;42.524;12.052;2022-09-03T06:11:35;96455.00;;;20.53;100.00
56198;BME280;42700;42.524;12.052;2022-09-03T06:14:01;96426.41;;;20.41;100.00
56198;BME280;42700;42.524;12.052;2022-09-03T06:16:29;96402.16;;;20.36;100.00
56198;BME280;42700;42.524;12.052;2022-09-03T06:18:55;96426.94;;;20.49;100.00
56198;BME280;42700;42.524;12.052;2022-09-03T06:21:21;96415.34;;;20.48;100.00
56198;BME280;42700;42.524;12.052;2022-09-03T06:23:51;96430.72;;;20.53;100.00
56198;BME280;42700;42.524;12.052;2022-09-03T06:26:17;96486.53;;;20.83;100.00
56198;BME280;42700;42.524;12.052;2022-09-03T06:28:42;96507.03;;;20.99;100.00
56198;BME280;42700;42.524;12.052;2022-09-03T06:31:09;96546.66;;;21.25;100.00
56198;BME280;42700;42.524;12.052;2022-09-03T06:33:36;96485.69;;;21.08;100.00
56198;BME280;42700;42.524;12.052;2022-09-03T06:36:03;96508.34;;;21.17;100.00
56198;BME280;42700;42.524;12.052;2022-09-03T06:38:29;96515.63;;;21.22;100.00
56198;BME280;42700;42.524;12.052;2022-09-03T06:41:05;96581.22;;;21.48;100.00
56198;BME280;42700;42.524;12.052;2022-09-03T06:43:32;96561.75;;;21.36;100.00
56198;BME280;42700;42.524;12.052;2022-09-03T06:45:59;96581.16;;;21.43;100.00
56198;BME280;42700;42.524;12.052;2022-09-03T06:48:25;96575.50;;;21.45;100.00
56198;BME280;42700;42.524;12.052;2022-09-03T06:50:59;96580.63;;;21.46;100.00
56198;BME280;42700;42.524;12.052;2022-09-03T06:53:26;96577.69;;;21.48;100.00
56198;BME280;42700;42.524;12.052;2022-09-03T06:55:52;96575.22;;;21.46;100.00
56198;BME280;42700;42.524;12.052;2022-09-03T06:58:18;96561.75;;;21.36;100.00
56198;BME280;42700;42.524;12.052;2022-09-03T07:00:43;96569.84;;;21.36;100.00
56198;BME280;42700;42.524;12.052;2022-09-03T07:03:09;96577.41;;;21.34;100.00
56198;BME280;42700;42.524;12.052;2022-09-03T07:05:35;96577.16;;;21.30;100.00
56198;BME280;42700;42.524;12.052;2022-09-03T07:08:00;96591.44;;;21.36;100.00
56198;BME280;42700;42.524;12.052;2022-09-03T07:10:26;96606.03;;;21.40;100.00
56198;BME280;42700;42.524;12.052;2022-09-03T07:12:52;96621.13;;;21.41;100.00
56198;BME280;42700;42.524;12.052;2022-09-03T07:15:20;96635.75;;;21.40;100.00
56198;BME280;42700;42.524;12.052;2022-09-03T07:17:45;96613.59;;;21.23;100.00
56198;BME280;42700;42.524;12.052;2022-09-03T07:20:11;96672.97;;;21.38;100.00
56198;BME280;42700;42.524;12.052;2022-09-03T07:22:36;96677.84;;;21.41;100.00
56198;BME280;42700;42.524;12.052;2022-09-03T07:25:02;96689.22;;;21.48;100.00
56198;BME280;42700;42.524;12.052;2022-09-03T07:27:27;96684.91;;;21.47;100.00
56198;BME280;42700;42.524;12.052;2022-09-03T07:29:53;96689.75;;;21.50;100.00
56198;BME280;42700;42.524;12.052;2022-09-03T07:32:18;96691.38;;;21.51;100.00
56198;BME280;42700;42.524;12.052;2022-09-03T07:34:44;96694.63;;;21.53;100.00
56198;BME280;42700;42.524;12.052;2022-09-03T07:37:09;96705.69;;;21.52;100.00
56198;BME280;42700;42.524;12.052;2022-09-03T07:39:35;96717.84;;;21.54;100.00
56198;BME280;42700;42.524;12.052;2022-09-03T07:42:00;96712.44;;;21.54;100.00
56198;BME280;42700;42.524;12.052;2022-09-03T07:44:26;96715.13;;;21.49;100.00
56198;BME280;42700;42.524;12.052;2022-09-03T07:46:52;96722.97;;;21.51;100.00
56198;BME280;42700;42.524;12.052;2022-09-03T07:49:18;96721.63;;;21.53;100.00
56198;BME280;42700;42.524;12.052;2022-09-03T07:51:45;96734.03;;;21.54;100.00
56198;BME280;42700;42.524;12.052;2022-09-03T07:54:14;96745.94;;;21.53;100.00
56198;BME280;42700;42.524;12.052;2022-09-03T07:56:40;96766.44;;;21.54;100.00
56198;BME280;42700;42.524;12.052;2022-09-03T07:59:05;96772.38;;;21.51;100.00
56198;BME280;42700;42.524;12.052;2022-09-03T08:01:31;96765.91;;;21.47;100.00
56198;BME280;42700;42.524;12.052;2022-09-03T08:03:57;96775.06;;;21.46;100.00
56198;BME280;42700;42.524;12.052;2022-09-03T08:06:24;96788.03;;;21.44;100.00
56198;BME280;42700;42.524;12.052;2022-09-03T08:08:54;96802.59;;;21.43;100.00
56198;BME280;42700;42.524;12.052;2022-09-03T08:11:21;96808.28;;;21.42;100.00
56198;BME280;42700;42.524;12.052;2022-09-03T08:13:47;96813.13;;;21.39;100.00
56198;BME280;42700;42.524;12.052;2022-09-03T08:16:14;96815.00;;;21.34;100.00
56198;BME280;42700;42.524;12.052;2022-09-03T08:18:40;96817.19;;;21.32;100.00
56198;BME280;42700;42.524;12.052;2022-09-03T08:21:07;96809.06;;;21.27;100.00
56198;BME280;42700;42.524;12.052;2022-09-03T08:23:37;96797.69;;;21.25;100.00
56198;BME280;42700;42.524;12.052;2022-09-03T08:26:02;96792.56;;;21.23;100.00
56198;BME280;42700;42.524;12.052;2022-09-03T08:28:28;96771.53;;;21.20;100.00
56198;BME280;42700;42.524;12.052;2022-09-03T08:31:08;96752.91;;;21.18;100.00
56198;BME280;42700;42.524;12.052;2022-09-03T08:33:36;96754.50;;;21.19;100.00
56198;BME280;42700;42.524;12.052;2022-09-03T08:36:03;96758.31;;;21.18;100.00
56198;BME280;42700;42.524;12.052;2022-09-03T08:38:30;96756.13;;;21.20;100.00
56198;BME280;42700;42.524;12.052;2022-09-03T08:41:01;96731.84;;;21.15;100.00
56198;BME280;42700;42.524;12.052;2022-09-03T08:43:27;96738.31;;;21.19;100.00
56198;BME280;42700;42.524;12.052;2022-09-03T08:45:54;96741.53;;;21.22;100.00
56198;BME280;42700;42.524;12.052;2022-09-03T08:48:24;96753.44;;;21.26;100.00
56198;BME280;42700;42.524;12.052;2022-09-03T08:50:52;96745.06;;;21.27;100.00
56198;BME280;42700;42.524;12.052;2022-09-03T08:55:50;96701.59;;;21.13;100.00
56198;BME280;42700;42.524;12.052;2022-09-03T08:58:17;96677.28;;;21.08;100.00
56198;BME280;42700;42.524;12.052;2022-09-03T09:05:46;96594.19;;;21.00;100.00
56198;BME280;42700;42.524;12.052;2022-09-03T09:11:15;96576.09;;;20.85;100.00
56198;BME280;42700;42.524;12.052;2022-09-03T09:13:51;96528.91;;;20.77;100.00
56198;BME280;42700;42.524;12.052;2022-09-03T09:16:30;96506.78;;;20.80;100.00
56198;BME280;42700;42.524;12.052;2022-09-03T09:19:06;96483.06;;;20.77;100.00
56198;BME280;42700;42.524;12.052;2022-09-03T09:21:44;96500.81;;;20.99;100.00
56198;BME280;42700;42.524;12.052;2022-09-03T09:24:22;96511.09;;;20.97;100.00
56198;BME280;42700;42.524;12.052;2022-09-03T09:26:49;96537.53;;;21.05;100.00
56198;BME280;42700;42.524;12.052;2022-09-03T09:29:16;96570.44;;;21.12;100.00
56198;BME280;42700;42.524;12.052;2022-09-03T09:31:42;96600.13;;;21.17;100.00
56198;BME280;42700;42.524;12.052;2022-09-03T09:34:09;96629.25;;;21.26;100.00
56198;BME280;42700;42.524;12.052;2022-09-03T09:36:42;96643.56;;;21.26;100.00
56198;BME280;42700;42.524;12.052;2022-09-03T09:39:11;96637.91;;;21.23;100.00
56198;BME280;42700;42.524;12.052;2022-09-03T09:41:40;96659.47;;;21.38;100.00
56198;BME280;42700;42.524;12.052;2022-09-03T09:44:18;96681.13;;;21.48;100.00
56198;BME280;42700;42.524;12.052;2022-09-03T09:46:46;96704.34;;;21.49;100.00
56198;BME280;42700;42.524;12.052;2022-09-03T09:49:31;96710.00;;;21.53;100.00
56198;BME280;42700;42.524;12.052;2022-09-03T09:52:04;96710.84;;;21.53;100.00
56198;BME280;42700;42.524;12.052;2022-09-03T09:54:35;96697.84;;;21.45;100.00
56198;BME280;42700;42.524;12.052;2022-09-03T09:57:05;96705.94;;;21.45;100.00
56198;BME280;42700;42.524;12.052;2022-09-03T09:59:33;96699.97;;;21.43;100.00
56198;BME280;42700;42.524;12.052;2022-09-03T10:02:06;96713.53;;;21.48;100.00
56198;BME280;42700;42.524;12.052;2022-09-03T10:04:33;96711.88;;;21.42;100.00
56198;BME280;42700;42.524;12.052;2022-09-03T10:07:01;96733.50;;;21.47;100.00
56198;BME280;42700;42.524;12.052;2022-09-03T10:09:34;96718.88;;;21.43;100.00
56198;BME280;42700;42.524;12.052;2022-09-03T10:14:33;96705.38;;;21.33;100.00
56198;BME280;42700;42.524;12.052;2022-09-03T10:19:51;96704.06;;;21.25;100.00
56198;BME280;42700;42.524;12.052;2022-09-03T10:34:36;96762.66;;;21.81;100.00
56198;BME280;42700;42.524;12.052;2022-09-03T11:04:54;96773.41;;;22.43;100.00
56198;BME280;42700;42.524;12.052;2022-09-03T11:07:21;96756.09;;;22.39;100.00
56198;BME280;42700;42.524;12.052;2022-09-03T11:10:10;96685.91;;;22.03;100.00
56198;BME280;42700;42.524;12.052;2022-09-03T11:12:41;96672.38;;;21.98;100.00
56198;BME280;42700;42.524;12.052;2022-09-03T11:18:13;96750.16;;;22.37;100.00
56198;BME280;42700;42.524;12.052;2022-09-03T11:52:27;97154.16;;;26.27;100.00
56198;BME280;42700;42.524;12.052;2022-09-03T11:54:53;97125.31;;;26.26;100.00
56198;BME280;42700;42.524;12.052;2022-09-03T11:57:29;96953.25;;;25.53;100.00
56198;BME280;42700;42.524;12.052;2022-09-03T12:02:54;97186.69;;;27.52;100.00
56198;BME280;42700;42.524;12.052;2022-09-03T12:05:30;96792.13;;;26.65;100.00
56198;BME280;42700;42.524;12.052;2022-09-03T12:10:50;96670.97;;;26.91;100.00
56198;BME280;42700;42.524;12.052;2022-09-03T12:15:52;96404.94;;;26.01;100.00
56198;BME280;42700;42.524;12.052;2022-09-03T12:18:28;96403.44;;;25.44;100.00
56198;BME280;42700;42.524;12.052;2022-09-03T12:23:31;96611.06;;;24.72;100.00
56198;BME280;42700;42.524;12.052;2022-09-03T12:26:07;96793.19;;;24.46;100.00
56198;BME280;42700;42.524;12.052;2022-09-03T12:28:34;96968.34;;;24.63;100.00
56198;BME280;42700;42.524;12.052;2022-09-03T12:31:13;96952.31;;;24.27;100.00
56198;BME280;42700;42.524;12.052;2022-09-03T12:33:53;97162.22;;;24.41;100.00
56198;BME280;42700;42.524;12.052;2022-09-03T12:36:22;97100.00;;;24.05;100.00
56198;BME280;42700;42.524;12.052;2022-09-03T12:38:48;97259.16;;;24.15;100.00
56198;BME280;42700;42.524;12.052;2022-09-03T12:41:32;97340.25;;;24.01;100.00
56198;BME280;42700;42.524;12.052;2022-09-03T12:43:58;97399.09;;;23.85;100.00
56198;BME280;42700;42.524;12.052;2022-09-03T12:46:31;97341.28;;;23.54;100.00
56198;BME280;42700;42.524;12.052;2022-09-03T12:48:58;97511.47;;;23.57;100.00
56198;BME280;42700;42.524;12.052;2022-09-03T12:51:32;97593.34;;;23.69;100.00
56198;BME280;42700;42.524;12.052;2022-09-03T12:53:58;97571.34;;;23.55;100.00
56198;BME280;42700;42.524;12.052;2022-09-03T12:56:25;97554.22;;;23.45;100.00
56198;BME280;42700;42.524;12.052;2022-09-03T12:58:57;97561.25;;;23.40;100.00
56198;BME280;42700;42.524;12.052;2022-09-03T13:01:29;97584.50;;;23.36;100.00
56198;BME280;42700;42.524;12.052;2022-09-03T13:06:23;97541.28;;;23.09;100.00
56198;BME280;42700;42.524;12.052;2022-09-03T13:08:58;97575.72;;;23.14;100.00
56198;BME280;42700;42.524;12.052;2022-09-03T13:11:25;97590.41;;;23.23;100.00
56198;BME280;42700;42.524;12.052;2022-09-03T13:14:01;97543.81;;;23.21;100.00
56198;BME280;42700;42.524;12.052;2022-09-03T13:24:24;97477.63;;;23.07;100.00
56198;BME280;42700;42.524;12.052;2022-09-03T13:27:03;97507.66;;;23.05;100.00
56198;BME280;42700;42.524;12.052;2022-09-03T13:32:10;97528.59;;;23.15;100.00
56198;BME280;42700;42.524;12.052;2022-09-03T13:34:49;97499.94;;;23.19;100.00
56198;BME280;42700;42.524;12.052;2022-09-03T13:37:24;97413.69;;;23.00;100.00
56198;BME280;42700;42.524;12.052;2022-09-03T13:39:56;97491.84;;;23.29;100.00
56198;BME280;42700;42.524;12.052;2022-09-03T13:44:58;97345.56;;;23.29;100.00
56198;BME280;42700;42.524;12.052;2022-09-03T13:47:38;97315.25;;;23.27;100.00
56198;BME280;42700;42.524;12.052;2022-09-03T13:50:38;97422.59;;;23.69;100.00
56198;BME280;42700;42.524;12.052;2022-09-03T13:55:48;97420.78;;;24.01;100.00
56198;BME280;42700;42.524;12.052;2022-09-03T14:01:01;97394.22;;;24.18;100.00
56198;BME280;42700;42.524;12.052;2022-09-03T14:03:34;97360.84;;;24.18;100.00
56198;BME280;42700;42.524;12.052;2022-09-03T14:06:08;97371.13;;;24.31;100.00
56198;BME280;42700;42.524;12.052;2022-09-03T14:14:05;97132.59;;;23.90;100.00
56198;BME280;42700;42.524;12.052;2022-09-03T14:16:38;97186.25;;;24.03;100.00
56198;BME280;42700;42.524;12.052;2022-09-03T14:19:08;97230.66;;;24.28;100.00
56198;BME280;42700;42.524;12.052;2022-09-03T14:21:45;97244.91;;;24.49;100.00
56198;BME280;42700;42.524;12.052;2022-09-03T14:26:50;97087.81;;;24.58;100.00
56198;BME280;42700;42.524;12.052;2022-09-03T14:29:17;96978.38;;;24.23;100.00
56198;BME280;42700;42.524;12.052;2022-09-03T14:31:51;97044.47;;;24.37;100.00
56198;BME280;42700;42.524;12.052;2022-09-03T14:34:28;96926.50;;;24.00;100.00
56198;BME280;42700;42.524;12.052;2022-09-03T14:37:04;96933.50;;;24.01;100.00
56198;BME280;42700;42.524;12.052;2022-09-03T14:39:49;97008.03;;;24.09;100.00
56198;BME280;42700;42.524;12.052;2022-09-03T14:45:12;96935.81;;;23.79;100.00
56198;BME280;42700;42.524;12.052;2022-09-03T15:01:11;97271.91;;;23.37;100.00
56198;BME280;42700;42.524;12.052;2022-09-03T15:03:45;97378.13;;;23.50;100.00
56198;BME280;42700;42.524;12.052;2022-09-03T15:06:24;97342.88;;;23.34;100.00
56198;BME280;42700;42.524;12.052;2022-09-03T15:11:34;97472.38;;;23.37;100.00
56198;BME280;42700;42.524;12.052;2022-09-03T15:22:08;97391.88;;;22.70;100.00
56198;BME280;42700;42.524;12.052;2022-09-03T15:27:17;97523.56;;;22.96;100.00
56198;BME280;42700;42.524;12.052;2022-09-03T15:29:51;97497.28;;;22.92;100.00
56198;BME280;42700;42.524;12.052;2022-09-03T15:32:24;97488.91;;;22.93;100.00
56198;BME280;42700;42.524;12.052;2022-09-03T15:34:58;97389.19;;;22.75;100.00
56198;BME280;42700;42.524;12.052;2022-09-03T15:40:18;97341.53;;;22.69;100.00
56198;BME280;42700;42.524;12.052;2022-09-03T15:42:47;97305.84;;;22.77;100.00
56198;BME280;42700;42.524;12.052;2022-09-03T15:45:28;97283.13;;;22.78;100.00
56198;BME280;42700;42.524;12.052;2022-09-03T15:48:05;97234.94;;;22.70;100.00
56198;BME280;42700;42.524;12.052;2022-09-03T15:50:52;97161.84;;;22.54;100.00
56198;BME280;42700;42.524;12.052;2022-09-03T15:56:06;96982.19;;;22.29;100.00
56198;BME280;42700;42.524;12.052;2022-09-03T15:59:10;96959.44;;;22.25;100.00
56198;BME280;42700;42.524;12.052;2022-09-03T16:01:34;96996.00;;;22.38;100.00
56198;BME280;42700;42.524;12.052;2022-09-03T16:04:04;97068.75;;;22.40;100.00
56198;BME280;42700;42.524;12.052;2022-09-03T16:09:17;97181.50;;;22.34;100.00
56198;BME280;42700;42.524;12.052;2022-09-03T16:11:55;97126.00;;;22.16;100.00
56198;BME280;42700;42.524;12.052;2022-09-03T16:14:39;97096.16;;;21.96;100.00
56198;BME280;42700;42.524;12.052;2022-09-03T16:19:55;97051.88;;;22.12;100.00
56198;BME280;42700;42.524;12.052;2022-09-03T16:22:28;96950.22;;;22.01;100.00
56198;BME280;42700;42.524;12.052;2022-09-03T16:25:11;96902.66;;;22.05;100.00
56198;BME280;42700;42.524;12.052;2022-09-03T16:27:41;96877.81;;;22.03;100.00
56198;BME280;42700;42.524;12.052;2022-09-03T16:30:34;96825.63;;;21.97;100.00
56198;BME280;42700;42.524;12.052;2022-09-03T16:36:04;96784.81;;;21.99;100.00
56198;BME280;42700;42.524;12.052;2022-09-03T16:41:23;96754.50;;;22.12;100.00